Time;durP1;ratioP1;P1;durP2;ratioP2;P2;SDS_P1;SDS_P2;PMS_P1;PMS_P2;Temp;Humidity;BMP_temperature;BMP_pressure;BME280_temperature;BME280_humidity;BME280_pressure;Samples;Min_cycle;Max_cycle;Signal;HPM_P1;HPM_P2
2021/06/26 00:01:00;;;;;;;20.45;12.28;;;;;;;18.77;90.28;100457.63;2741883;85;21035;-67
2021/06/26 00:05:05;;;;;;;22.30;12.13;;;;;;;18.62;91.22;100460.23;2758751;85;21087;-67
2021/06/26 00:09:08;;;;;;;25.87;12.47;;;;;;;18.46;91.71;100466.00;2814602;84;21031;-67
2021/06/26 00:13:11;;;;;;;20.48;11.35;;;;;;;18.36;92.06;100463.51;2748715;86;21066;-66
2021/06/26 00:17:14;;;;;;;20.90;12.50;;;;;;;18.27;92.19;100463.18;2814397;84;21099;-68
2021/06/26 00:21:17;;;;;;;18.15;12.05;;;;;;;18.23;93.14;100465.89;2748251;86;21316;-68
2021/06/26 00:25:24;;;;;;;22.32;12.53;;;;;;;18.37;93.35;100465.67;2814332;84;21513;-66
2021/06/26 00:29:27;;;;;;;30.88;12.43;;;;;;;18.49;93.03;100466.17;2748755;86;21398;-66
2021/06/26 00:33:30;;;;;;;38.33;13.48;;;;;;;18.53;91.50;100479.62;2814503;84;21468;-66
2021/06/26 00:37:33;;;;;;;32.67;12.75;;;;;;;18.53;91.64;100480.44;2748470;86;21062;-66
2021/06/26 00:41:36;;;;;;;33.80;13.58;;;;;;;18.51;91.46;100481.13;2814287;84;21028;-66
2021/06/26 00:45:38;;;;;;;24.23;13.45;;;;;;;18.53;91.77;100478.27;2748546;86;21082;-65
2021/06/26 00:49:41;;;;;;;35.25;13.95;;;;;;;18.55;91.64;100477.59;2814156;84;21012;-66
2021/06/26 00:53:44;;;;;;;27.67;14.03;;;;;;;18.53;91.45;100480.97;2748595;86;21956;-66
2021/06/26 00:57:55;;;;;;;33.85;13.08;;;;;;;18.50;91.25;100479.97;2814523;84;21601;-65
2021/06/26 01:01:57;;;;;;;30.17;13.68;;;;;;;18.43;91.45;100478.47;2748750;86;21573;-66
2021/06/26 01:06:00;;;;;;;35.63;15.08;;;;;;;18.54;92.32;100483.99;2814065;84;22342;-67
2021/06/26 01:10:05;;;;;;;25.90;11.45;;;;;;;18.65;92.04;100479.55;2814279;84;21067;-66
2021/06/26 01:14:08;;;;;;;27.45;13.38;;;;;;;18.73;91.54;100471.95;2794486;85;21054;-67
2021/06/26 01:18:10;;;;;;;31.70;15.08;;;;;;;18.71;91.06;100473.98;2814206;84;21083;-66
2021/06/26 01:22:16;;;;;;;31.93;13.62;;;;;;;18.62;90.84;100473.17;2793959;85;21062;-66
2021/06/26 01:26:19;;;;;;;31.97;12.73;;;;;;;18.60;91.53;100462.27;2813315;84;21032;-67
2021/06/26 01:30:29;;;;;;;30.17;13.08;;;;;;;18.67;91.78;100462.73;2736182;87;21039;-66
2021/06/26 01:34:32;;;;;;;28.42;12.53;;;;;;;18.70;91.12;100455.65;2745962;86;21035;-66
2021/06/26 01:38:36;;;;;;;22.00;10.82;;;;;;;18.73;91.12;100457.66;2814693;84;21020;-66
2021/06/26 01:42:38;;;;;;;25.20;10.58;;;;;;;18.75;90.56;100442.97;2794680;85;21039;-66
2021/06/26 01:46:41;;;;;;;23.62;11.40;;;;;;;18.62;89.77;100444.89;2813960;84;21084;-66
2021/06/26 01:50:44;;;;;;;20.82;11.57;;;;;;;18.39;90.29;100438.92;2794369;85;21100;-67
2021/06/26 01:54:47;;;;;;;24.70;11.25;;;;;;;18.15;91.05;100443.86;2750119;85;21074;-66
2021/06/26 01:58:49;;;;;;;22.87;11.73;;;;;;;17.95;92.36;100438.00;2764554;86;21051;-66
2021/06/26 02:02:52;;;;;;;33.48;11.43;;;;;;;17.93;93.49;100438.67;2794446;85;21071;-67
2021/06/26 02:06:55;;;;;;;22.67;10.85;;;;;;;18.03;93.48;100439.34;2819618;84;21051;-66
2021/06/26 02:10:57;;;;;;;18.32;10.20;;;;;;;18.10;92.80;100448.93;2823321;84;20996;-66
2021/06/26 02:15:00;;;;;;;30.82;11.75;;;;;;;18.16;92.58;100452.79;2756966;86;21021;-67
2021/06/26 02:19:02;;;;;;;30.43;11.78;;;;;;;18.18;91.76;100455.66;2822757;84;21040;-67
2021/06/26 02:23:05;;;;;;;16.57;8.98;;;;;;;18.19;92.04;100464.56;2803079;84;21496;-67
2021/06/26 02:27:08;;;;;;;20.90;10.28;;;;;;;18.22;91.70;100460.17;2802553;85;21015;-67
2021/06/26 02:31:10;;;;;;;22.25;9.23;;;;;;;18.22;91.22;100473.63;2748257;86;21082;-67
2021/06/26 02:35:15;;;;;;;26.35;9.45;;;;;;;18.26;91.77;100476.31;2699886;88;20988;-67
2021/06/26 02:39:18;;;;;;;33.67;12.15;;;;;;;18.38;91.75;100476.29;2701300;87;21111;-67
2021/06/26 02:43:21;;;;;;;25.77;9.75;;;;;;;18.52;90.84;100487.37;2701336;88;21039;-66
2021/06/26 02:47:23;;;;;;;19.48;9.55;;;;;;;18.52;89.96;100490.89;2701346;88;20988;-66
2021/06/26 02:51:26;;;;;;;36.23;8.85;;;;;;;18.56;89.91;100490.05;2701252;87;21075;-66
2021/06/26 02:55:29;;;;;;;19.00;9.38;;;;;;;18.60;90.08;100490.55;2700879;88;21560;-67
2021/06/26 02:59:32;;;;;;;17.57;10.38;;;;;;;18.63;89.58;100499.62;2729843;86;21079;-66
2021/06/26 03:03:34;;;;;;;28.75;10.32;;;;;;;18.66;89.55;100503.31;2773576;85;21030;-67
2021/06/26 03:07:38;;;;;;;19.20;9.38;;;;;;;18.68;89.64;100503.97;2761897;85;21012;-66
2021/06/26 03:11:40;;;;;;;18.62;9.20;;;;;;;18.74;89.44;100505.14;2749026;85;21043;-67
2021/06/26 03:15:44;;;;;;;27.27;10.85;;;;;;;18.75;89.66;100505.47;2748491;85;21074;-67
2021/06/26 03:19:47;;;;;;;27.45;9.20;;;;;;;18.78;89.31;100509.16;2748437;85;21044;-66
2021/06/26 03:23:51;;;;;;;23.45;9.95;;;;;;;18.78;89.50;100515.89;2748524;85;21004;-67
2021/06/26 03:27:54;;;;;;;20.25;10.32;;;;;;;18.79;88.92;100517.58;2748012;86;21569;-66
2021/06/26 03:31:57;;;;;;;25.52;9.28;;;;;;;18.73;89.20;100516.94;2749058;86;21071;-66
2021/06/26 03:36:00;;;;;;;19.98;10.10;;;;;;;18.70;89.64;100523.00;2748774;85;21020;-66
2021/06/26 03:40:04;;;;;;;21.12;10.50;;;;;;;18.71;90.52;100519.78;2748798;86;21588;-66
2021/06/26 03:44:07;;;;;;;18.98;9.53;;;;;;;18.79;90.35;100521.62;2748933;86;21083;-66
2021/06/26 03:48:10;;;;;;;30.35;9.98;;;;;;;18.64;89.82;100513.42;2748810;86;21059;-66
2021/06/26 03:52:13;;;;;;;16.57;8.95;;;;;;;18.50;90.97;100517.16;2748888;85;21099;-66
2021/06/26 03:56:15;;;;;;;21.02;10.00;;;;;;;18.52;90.98;100521.04;2748634;86;21122;-67
2021/06/26 04:00:19;;;;;;;23.98;10.08;;;;;;;18.57;91.47;100529.44;2748684;85;21031;-66
2021/06/26 04:04:22;;;;;;;19.10;8.73;;;;;;;18.56;91.07;100530.45;2748804;86;21063;-67
2021/06/26 04:08:24;;;;;;;19.48;7.95;;;;;;;18.55;92.06;100530.11;2748710;85;21071;-67
2021/06/26 04:12:27;;;;;;;24.47;8.50;;;;;;;18.63;92.60;100531.42;2746541;85;21028;-68
2021/06/26 04:16:30;;;;;;;26.42;8.88;;;;;;;18.80;93.60;100530.03;2729853;87;21554;-66
2021/06/26 04:20:33;;;;;;;21.65;9.00;;;;;;;18.96;93.08;100527.77;2729984;86;21041;-66
2021/06/26 04:24:35;;;;;;;16.97;9.05;;;;;;;19.10;92.58;100526.24;2708666;88;21087;-66
2021/06/26 04:28:38;;;;;;;23.67;9.98;;;;;;;19.32;93.17;100521.06;2730064;87;21513;-66
2021/06/26 04:32:42;;;;;;;23.42;9.90;;;;;;;19.63;93.43;100521.02;2709143;88;21063;-66
2021/06/26 04:36:45;;;;;;;18.87;8.25;;;;;;;19.98;92.93;100517.91;2730162;87;21007;-67
2021/06/26 04:40:53;;;;;;;16.05;7.90;;;;;;;20.20;90.95;100521.59;2709100;88;21075;-66
2021/06/26 04:44:57;;;;;;;15.55;8.10;;;;;;;20.36;89.83;100523.28;2730819;86;21062;-66
2021/06/26 04:49:00;;;;;;;14.13;8.43;;;;;;;20.48;89.16;100516.08;2709488;88;21036;-68
2021/06/26 04:53:03;;;;;;;12.73;8.35;;;;;;;20.71;89.05;100506.51;2730842;87;21004;-67
2021/06/26 04:57:07;;;;;;;13.68;8.30;;;;;;;21.04;88.98;100512.89;2709681;88;21035;-68
2021/06/26 05:01:12;;;;;;;16.40;7.75;;;;;;;21.48;88.61;100511.09;2731191;87;21066;-67
2021/06/26 05:05:15;;;;;;;10.03;8.23;;;;;;;21.65;85.49;100513.59;2710713;86;21055;-69
2021/06/26 05:09:17;;;;;;;24.12;9.00;;;;;;;22.01;85.91;100512.66;2741335;87;21019;-69
2021/06/26 05:13:20;;;;;;;17.80;8.00;;;;;;;22.20;82.47;100508.41;2794613;84;21008;-68
2021/06/26 05:17:23;;;;;;;14.75;7.90;;;;;;;22.31;81.36;100505.66;2794501;84;21056;-70
2021/06/26 05:21:26;;;;;;;21.93;8.85;;;;;;;22.29;81.20;100510.45;2794559;84;21063;-69
2021/06/26 05:25:29;;;;;;;15.35;8.15;;;;;;;22.30;80.50;100512.13;2789508;85;21063;-71
2021/06/26 05:29:33;;;;;;;13.65;8.28;;;;;;;22.26;80.59;100514.91;2789676;85;21019;-68
2021/06/26 05:33:36;;;;;;;13.50;7.80;;;;;;;22.09;81.51;100511.14;2789798;85;21000;-68
2021/06/26 05:37:41;;;;;;;14.18;8.73;;;;;;;22.07;81.65;100517.78;2789684;85;21047;-69
2021/06/26 05:41:43;;;;;;;15.60;8.07;;;;;;;21.98;81.07;100519.79;2790453;85;20983;-70
2021/06/26 05:45:46;;;;;;;14.47;7.37;;;;;;;21.87;81.83;100522.52;2789682;84;21028;-70
2021/06/26 05:49:49;;;;;;;13.32;7.22;;;;;;;21.83;81.61;100527.50;2789644;84;21007;-71
2021/06/26 05:53:51;;;;;;;9.38;7.15;;;;;;;21.71;82.16;100520.92;2790126;85;21359;-71
2021/06/26 05:57:55;;;;;;;10.30;6.78;;;;;;;21.71;82.41;100517.36;2789512;84;21041;-70
2021/06/26 06:01:57;;;;;;;12.53;6.78;;;;;;;21.64;82.18;100518.64;2789597;85;21006;-70
2021/06/26 06:06:00;;;;;;;11.03;7.35;;;;;;;21.27;82.83;100517.31;2784101;85;21083;-68
2021/06/26 06:10:05;;;;;;;14.05;8.88;;;;;;;21.10;84.31;100513.48;2750279;85;21450;-68
2021/06/26 06:14:10;;;;;;;10.70;8.25;;;;;;;21.13;85.40;100513.62;2750778;86;21044;-70
2021/06/26 06:18:14;;;;;;;11.93;7.80;;;;;;;21.18;85.65;100503.06;2750940;85;21064;-71
2021/06/26 06:22:17;;;;;;;14.33;8.37;;;;;;;21.20;85.35;100511.00;2750918;86;21000;-71
2021/06/26 06:26:20;;;;;;;11.57;8.80;;;;;;;21.17;85.62;100505.45;2738566;86;21050;-71
2021/06/26 06:30:25;;;;;;;10.32;7.67;;;;;;;21.26;86.48;100507.52;2709944;88;21071;-69
2021/06/26 06:34:28;;;;;;;14.98;8.28;;;;;;;21.40;85.75;100519.32;2731528;86;21056;-70
2021/06/26 06:38:31;;;;;;;23.52;9.68;;;;;;;21.51;85.01;100522.03;2710315;88;21096;-70
2021/06/26 06:42:35;;;;;;;20.12;11.35;;;;;;;21.44;84.83;100519.78;2731566;87;20992;-72
2021/06/26 06:46:37;;;;;;;14.68;11.25;;;;;;;21.48;85.38;100517.01;2709917;88;21032;-69
2021/06/26 06:50:44;;;;;;;14.40;10.13;;;;;;;21.59;84.68;100523.28;2731376;86;21052;-72
2021/06/26 06:54:47;;;;;;;15.00;8.60;;;;;;;21.51;84.76;100518.83;2709610;88;21167;-72
2021/06/26 06:58:50;;;;;;;13.70;9.13;;;;;;;21.62;84.23;100513.95;2730917;87;21032;-69
2021/06/26 07:02:52;;;;;;;10.45;8.53;;;;;;;21.78;84.37;100512.33;2709560;88;21012;-72
2021/06/26 07:06:55;;;;;;;12.03;8.93;;;;;;;21.95;84.55;100517.48;2744730;85;21034;-69
2021/06/26 07:10:58;;;;;;;12.28;8.63;;;;;;;22.22;84.19;100515.00;2777825;85;21075;-69
2021/06/26 07:15:00;;;;;;;11.53;7.55;;;;;;;22.44;81.93;100517.64;2778141;85;20995;-68
2021/06/26 07:19:04;;;;;;;14.80;6.83;;;;;;;22.54;80.80;100527.63;2777910;85;21086;-71
2021/06/26 07:23:07;;;;;;;13.78;6.40;;;;;;;22.62;79.54;100520.70;2778341;85;21011;-70
2021/06/26 07:27:10;;;;;;;8.15;7.00;;;;;;;22.70;79.92;100517.50;2778600;85;21002;-70
2021/06/26 07:31:14;;;;;;;8.13;6.97;;;;;;;22.95;80.56;100526.78;2778361;85;21017;-72
2021/06/26 07:35:17;;;;;;;8.60;6.72;;;;;;;23.06;79.03;100522.66;2778692;85;20967;-71
2021/06/26 07:39:20;;;;;;;9.60;6.83;;;;;;;23.32;80.04;100514.34;2778410;85;21003;-69
2021/06/26 07:43:22;;;;;;;11.03;6.22;;;;;;;23.52;78.84;100522.50;2778758;85;21054;-69
2021/06/26 07:47:25;;;;;;;11.05;5.33;;;;;;;23.79;78.05;100510.34;2778723;85;21003;-71
2021/06/26 07:51:28;;;;;;;9.93;6.83;;;;;;;24.00;76.91;100509.81;2778912;84;20990;-69
2021/06/26 07:55:31;;;;;;;9.50;6.53;;;;;;;24.03;76.52;100503.14;2779032;85;21011;-71
2021/06/26 07:59:34;;;;;;;10.63;6.42;;;;;;;24.32;76.38;100503.75;2777981;85;21544;-70
2021/06/26 08:03:37;;;;;;;9.63;6.80;;;;;;;24.78;75.47;100501.98;2751207;85;21563;-69
2021/06/26 08:07:40;;;;;;;9.43;7.12;;;;;;;24.93;73.57;100498.44;2761751;85;21659;-70
2021/06/26 08:11:42;;;;;;;7.97;6.35;;;;;;;24.97;71.72;100502.12;2818110;84;21047;-71
2021/06/26 08:15:46;;;;;;;14.00;7.03;;;;;;;25.07;71.49;100498.39;2796866;84;21058;-71
2021/06/26 08:19:49;;;;;;;10.78;7.45;;;;;;;25.06;71.49;100500.80;2796329;84;21022;-70
2021/06/26 08:23:52;;;;;;;10.72;6.55;;;;;;;25.32;70.82;100501.70;2797429;85;21068;-71
2021/06/26 08:27:56;;;;;;;8.13;6.72;;;;;;;25.69;71.02;100501.90;2797551;85;21351;-68
2021/06/26 08:31:58;;;;;;;11.35;5.37;;;;;;;25.97;69.06;100497.91;2797292;85;21501;-69
2021/06/26 08:36:01;;;;;;;8.68;5.33;;;;;;;26.13;68.02;100494.29;2813441;84;21107;-68
2021/06/26 08:40:05;;;;;;;7.83;5.65;;;;;;;26.38;67.61;100491.56;2797253;84;21027;-70
2021/06/26 08:44:13;;;;;;;7.85;5.65;;;;;;;26.44;67.17;100496.12;2797592;85;21007;-69
2021/06/26 08:48:16;;;;;;;8.43;5.75;;;;;;;26.64;65.47;100494.52;2790866;84;21032;-69
2021/06/26 08:52:19;;;;;;;6.42;5.72;;;;;;;26.65;65.09;100492.09;2776373;85;21057;-68
2021/06/26 08:56:21;;;;;;;6.12;5.55;;;;;;;26.85;64.95;100489.69;2798197;85;21057;-71
2021/06/26 09:00:27;;;;;;;10.38;5.28;;;;;;;27.16;63.13;100496.00;2797990;85;21023;-69
2021/06/26 09:04:30;;;;;;;7.65;4.92;;;;;;;27.26;63.49;100494.59;2818418;84;21052;-70
2021/06/26 09:08:34;;;;;;;10.45;5.60;;;;;;;27.23;61.49;100493.19;2787807;84;21082;-70
2021/06/26 09:12:40;;;;;;;7.25;5.47;;;;;;;27.05;62.62;100486.70;2779216;84;21062;-70
2021/06/26 09:16:53;;;;;;;7.17;5.70;;;;;;;27.25;62.80;100490.20;2758163;86;21056;-70
2021/06/26 09:20:58;;;;;;;6.42;5.83;;;;;;;27.41;61.88;100488.19;2779370;85;21517;-69
2021/06/26 09:25:00;;;;;;;7.37;5.35;;;;;;;27.49;63.52;100493.30;2780342;85;21045;-70
2021/06/26 09:29:12;;;;;;;6.92;5.10;;;;;;;27.38;62.49;100470.91;2757695;86;21051;-69
2021/06/26 09:33:24;;;;;;;9.23;5.67;;;;;;;27.23;62.25;100492.64;2754180;86;21074;-69
2021/06/26 09:37:31;;;;;;;6.80;5.45;;;;;;;27.49;61.70;100487.83;2772957;85;20956;-69
2021/06/26 09:41:36;;;;;;;5.17;3.80;;;;;;;27.88;62.01;100486.62;2779221;85;21029;-68
2021/06/26 09:45:38;;;;;;;;;;;;;;;27.69;58.40;100487.27;2761435;86;21070;-68
2021/06/26 09:49:41;;;;;;;8.55;5.12;;;;;;;27.76;60.10;100481.14;2758232;86;20161;-68
2021/06/26 09:53:51;;;;;;;7.25;5.72;;;;;;;28.04;60.39;100483.73;2757996;86;21044;-68
2021/06/26 09:57:58;;;;;;;8.13;6.55;;;;;;;27.72;61.02;100473.98;2769065;85;21015;-67
2021/06/26 10:02:02;;;;;;;6.95;5.20;;;;;;;27.50;62.96;100474.47;2779380;85;21023;-68
2021/06/26 10:06:11;;;;;;;5.62;4.65;;;;;;;26.98;61.96;100471.48;2778942;85;21037;-68
2021/06/26 10:10:19;;;;;;;6.70;5.12;;;;;;;26.62;63.78;100469.88;2750994;86;21080;-68
2021/06/26 10:14:21;;;;;;;6.25;5.20;;;;;;;26.35;63.86;100472.92;2766360;85;20991;-68
2021/06/26 10:18:25;;;;;;;6.03;5.35;;;;;;;26.15;63.30;100473.12;2798470;84;21107;-68
2021/06/26 10:22:28;;;;;;;10.18;5.40;;;;;;;25.92;64.31;100470.48;2808994;84;21044;-67
2021/06/26 10:26:42;;;;;;;5.78;5.28;;;;;;;25.70;65.26;100474.97;2797504;84;21059;-68
2021/06/26 10:31:12;;;;;;;6.33;5.45;;;;;;;25.59;65.12;100474.34;2802866;84;21509;-67
2021/06/26 10:35:22;;;;;;;7.90;5.17;;;;;;;25.56;65.59;100476.97;2802671;84;20995;-68
2021/06/26 10:39:32;;;;;;;6.90;6.20;;;;;;;25.64;65.39;100481.31;2797068;84;21053;-67
2021/06/26 10:43:35;;;;;;;7.53;6.78;;;;;;;25.75;67.10;100479.24;2797407;84;21030;-67
2021/06/26 10:47:42;;;;;;;6.30;5.70;;;;;;;26.02;66.58;100473.55;2797902;84;21079;-66
2021/06/26 10:51:45;;;;;;;6.62;5.62;;;;;;;26.19;64.94;100474.36;2798159;85;21071;-69
2021/06/26 10:56:12;;;;;;;7.20;6.05;;;;;;;26.28;63.24;100473.00;2793799;84;21036;-66
2021/06/26 11:00:18;;;;;;;8.15;7.45;;;;;;;26.43;64.44;100469.07;2797836;85;21011;-65
2021/06/26 11:04:25;;;;;;;9.88;6.95;;;;;;;26.66;63.45;100470.57;2811834;84;21075;-66
2021/06/26 11:08:38;;;;;;;9.10;6.87;;;;;;;26.89;62.05;100469.05;2790119;85;21061;-67
2021/06/26 11:12:52;;;;;;;6.97;6.37;;;;;;;27.04;63.08;100482.31;2779819;85;21010;-67
2021/06/26 11:16:57;;;;;;;8.35;7.50;;;;;;;27.15;61.32;100479.33;2752848;85;21035;-66
2021/06/26 11:21:05;;;;;;;;;;;;;;;27.20;60.98;100483.55;2781998;85;21033;-66
2021/06/26 11:25:13;;;;;;;10.95;8.48;;;;;;;27.00;63.08;100477.53;2779734;85;20112;-67
2021/06/26 11:29:42;;;;;;;12.65;9.53;;;;;;;26.70;63.62;100479.66;2761585;85;21049;-67
2021/06/26 11:33:56;;;;;;;10.82;9.83;;;;;;;26.40;65.63;100481.25;2778541;85;21032;-68
2021/06/26 11:37:59;;;;;;;10.43;7.97;;;;;;;26.23;66.30;100478.30;2779000;85;21013;-67
2021/06/26 11:42:20;;;;;;;10.00;7.72;;;;;;;26.15;66.12;100482.66;2780073;85;21002;-68
2021/06/26 11:46:24;;;;;;;8.68;7.25;;;;;;;26.03;66.38;100473.84;2780413;85;20985;-68
2021/06/26 11:50:27;;;;;;;8.70;7.90;;;;;;;25.89;65.19;100473.14;2775910;85;21021;-67
2021/06/26 11:54:30;;;;;;;9.28;7.78;;;;;;;25.78;66.50;100479.30;2781527;85;20988;-68
2021/06/26 11:58:48;;;;;;;6.87;6.20;;;;;;;25.65;67.16;100478.89;2779995;85;20978;-71
2021/06/26 12:02:51;;;;;;;8.45;7.65;;;;;;;25.45;66.67;100481.20;2778786;85;21039;-70
2021/06/26 12:06:54;;;;;;;8.10;7.22;;;;;;;25.26;67.96;100481.66;2779441;85;21044;-70
2021/06/26 12:10:57;;;;;;;7.20;6.50;;;;;;;25.08;67.37;100476.41;2796941;84;21063;-70
2021/06/26 12:14:59;;;;;;;6.20;5.60;;;;;;;25.10;67.57;100477.53;2776996;85;21023;-69
2021/06/26 12:19:07;;;;;;;6.22;5.55;;;;;;;25.14;66.36;100482.84;2807091;84;21023;-70
2021/06/26 12:23:12;;;;;;;7.12;5.72;;;;;;;25.18;65.66;100487.34;2813637;84;21027;-69
2021/06/26 12:27:21;;;;;;;5.25;4.55;;;;;;;25.22;66.00;100480.40;2791957;85;21051;-69
2021/06/26 12:31:29;;;;;;;5.65;4.50;;;;;;;25.26;65.30;100480.80;2816199;84;21067;-72
2021/06/26 12:35:30;;;;;;;8.58;5.47;;;;;;;25.26;65.20;100483.53;2796307;85;21524;-68
2021/06/26 12:39:35;;;;;;;7.90;6.53;;;;;;;25.31;65.94;100485.06;2787342;84;29539;-70
2021/06/26 12:43:37;;;;;;;6.95;5.65;;;;;;;25.46;65.89;100486.95;2777906;84;21111;-69
2021/06/26 12:47:40;;;;;;;10.15;6.65;;;;;;;25.58;65.38;100472.67;2797782;85;20986;-71
2021/06/26 12:51:49;;;;;;;11.78;6.33;;;;;;;25.74;65.38;100468.55;2798599;85;21057;-64
2021/06/26 12:55:53;;;;;;;7.70;6.87;;;;;;;25.87;67.89;100471.69;2799176;84;21003;-64
2021/06/26 12:59:56;;;;;;;8.05;7.00;;;;;;;25.94;66.97;100458.83;2798102;85;21049;-66
2021/06/26 13:03:59;;;;;;;8.08;7.25;;;;;;;25.96;65.66;100448.56;2797804;84;21084;-66
2021/06/26 13:08:07;;;;;;;10.75;7.65;;;;;;;26.07;66.14;100437.45;2798284;84;21029;-67
2021/06/26 13:12:23;;;;;;;8.85;6.35;;;;;;;26.24;65.60;100433.63;2818545;84;20988;-67
2021/06/26 13:16:26;;;;;;;7.25;6.55;;;;;;;26.32;63.84;100431.94;2798796;85;21086;-65
2021/06/26 13:20:29;;;;;;;6.95;5.60;;;;;;;26.35;62.47;100427.42;2816910;84;21043;-68
2021/06/26 13:24:34;;;;;;;6.85;5.87;;;;;;;26.37;61.07;100421.21;2797471;84;20974;-67
2021/06/26 13:28:37;;;;;;;9.80;6.60;;;;;;;26.41;62.76;100422.11;2796826;84;21079;-66
2021/06/26 13:32:42;;;;;;;6.37;5.72;;;;;;;26.44;63.34;100421.66;2817047;84;21529;-66
2021/06/26 13:36:45;;;;;;;7.60;6.95;;;;;;;26.50;63.68;100419.36;2798235;85;21091;-66
2021/06/26 13:40:50;;;;;;;6.72;6.12;;;;;;;26.75;63.58;100426.63;2797592;84;21036;-67
2021/06/26 13:44:52;;;;;;;7.83;6.87;;;;;;;27.01;60.10;100424.61;2795512;84;21053;-67
2021/06/26 13:48:55;;;;;;;7.37;6.05;;;;;;;27.14;60.26;100421.70;2804619;84;21016;-67
2021/06/26 13:52:58;;;;;;;7.50;6.80;;;;;;;27.17;60.34;100417.13;2798318;84;21634;-67
2021/06/26 13:57:01;;;;;;;7.87;6.78;;;;;;;27.18;60.17;100413.85;2798044;84;21504;-67
2021/06/26 14:01:03;;;;;;;8.03;6.65;;;;;;;27.07;60.45;100409.51;2809995;84;21005;-67
2021/06/26 14:05:11;;;;;;;7.53;6.70;;;;;;;26.93;60.63;100413.48;2798323;84;21021;-67
2021/06/26 14:09:14;;;;;;;7.95;7.33;;;;;;;26.87;62.26;100407.60;2790096;84;21078;-67
2021/06/26 14:13:17;;;;;;;9.10;8.20;;;;;;;26.77;63.37;100398.58;2768561;85;21103;-67
2021/06/26 14:17:20;;;;;;;8.08;7.17;;;;;;;26.57;65.38;100400.19;2774152;85;21062;-66
2021/06/26 14:21:23;;;;;;;10.68;5.47;;;;;;;26.27;63.63;100399.08;2758087;86;21059;-67
2021/06/26 14:25:27;;;;;;;8.80;7.95;;;;;;;25.93;65.83;100393.97;2779958;85;21034;-66
2021/06/26 14:29:29;;;;;;;8.18;7.10;;;;;;;25.75;67.87;100397.52;2779491;85;21057;-67
2021/06/26 14:33:32;;;;;;;11.25;7.30;;;;;;;25.69;69.06;100392.95;2758584;86;21031;-68
2021/06/26 14:37:36;;;;;;;6.62;5.95;;;;;;;25.74;67.51;100382.20;2780717;85;21041;-68
2021/06/26 14:41:38;;;;;;;7.47;6.78;;;;;;;25.76;67.99;100377.91;2732908;86;21016;-68
2021/06/26 14:45:41;;;;;;;5.95;5.35;;;;;;;25.95;67.13;100377.41;2749984;86;21045;-68
2021/06/26 14:49:45;;;;;;;7.33;6.15;;;;;;;26.29;65.60;100372.42;2750592;86;21012;-68
2021/06/26 14:53:47;;;;;;;7.08;6.42;;;;;;;26.61;64.26;100370.88;2751094;85;20965;-67
2021/06/26 14:57:50;;;;;;;7.42;5.37;;;;;;;26.85;64.37;100368.25;2764687;85;21036;-67
2021/06/26 15:01:52;;;;;;;7.20;6.60;;;;;;;26.98;62.33;100365.04;2780282;85;21055;-67
2021/06/26 15:05:55;;;;;;;7.50;4.97;;;;;;;27.09;61.63;100368.31;2780006;85;21006;-67
2021/06/26 15:09:58;;;;;;;6.58;5.92;;;;;;;26.97;59.69;100374.30;2780024;85;21026;-67
2021/06/26 15:14:01;;;;;;;5.20;4.70;;;;;;;26.82;61.10;100371.42;2779743;85;21031;-68
2021/06/26 15:18:04;;;;;;;7.35;6.22;;;;;;;26.65;60.81;100368.52;2779945;84;21034;-66
2021/06/26 15:22:07;;;;;;;5.70;5.08;;;;;;;26.73;61.87;100366.82;2781525;85;20994;-65
2021/06/26 15:26:10;;;;;;;10.32;6.03;;;;;;;26.85;60.03;100365.53;2759654;86;21027;-65
2021/06/26 15:30:15;;;;;;;7.05;5.37;;;;;;;26.86;59.34;100370.47;2781379;85;20995;-65
2021/06/26 15:34:17;;;;;;;5.22;4.80;;;;;;;26.87;60.79;100364.76;2781672;85;20984;-65
2021/06/26 15:38:23;;;;;;;5.90;5.25;;;;;;;26.97;59.77;100364.74;2759693;86;21015;-65
2021/06/26 15:42:26;;;;;;;17.32;8.43;;;;;;;26.91;59.10;100371.41;2781471;85;21027;-65
2021/06/26 15:46:29;;;;;;;35.10;14.10;;;;;;;26.97;59.89;100368.83;2781313;84;21037;-66
2021/06/26 15:50:32;;;;;;;120.97;42.88;;;;;;;26.96;59.24;100366.63;2780258;85;21028;-65
2021/06/26 15:54:35;;;;;;;8.25;5.20;;;;;;;26.94;61.12;100370.13;2781914;84;20958;-65
2021/06/26 15:58:37;;;;;;;5.10;4.60;;;;;;;26.94;61.41;100373.70;2760062;86;20979;-65
2021/06/26 16:02:42;;;;;;;4.33;3.95;;;;;;;26.83;62.87;100373.63;2760118;86;21007;-65
2021/06/26 16:06:45;;;;;;;5.83;3.75;;;;;;;26.89;62.15;100370.00;2760039;86;21047;-65
2021/06/26 16:10:48;;;;;;;5.97;5.00;;;;;;;26.93;61.88;100367.94;2768551;85;20988;-65
2021/06/26 16:14:50;;;;;;;5.65;5.08;;;;;;;26.86;59.28;100364.46;2793977;85;20972;-65
2021/06/26 16:18:53;;;;;;;4.97;4.47;;;;;;;26.76;59.08;100360.89;2809987;84;21370;-65
2021/06/26 16:22:56;;;;;;;5.55;4.95;;;;;;;26.53;60.04;100354.84;2799996;85;21007;-64
2021/06/26 16:26:58;;;;;;;5.12;4.62;;;;;;;26.27;61.76;100355.47;2810687;84;21008;-65
2021/06/26 16:31:02;;;;;;;4.87;4.47;;;;;;;26.31;63.70;100358.58;2799440;85;21023;-65
2021/06/26 16:35:08;;;;;;;5.35;4.80;;;;;;;26.49;63.23;100356.34;2800271;85;21000;-65
2021/06/26 16:39:10;;;;;;;9.63;5.75;;;;;;;26.61;63.62;100355.87;2820082;84;20984;-64
2021/06/26 16:43:13;;;;;;;6.42;5.83;;;;;;;26.63;64.42;100352.37;2800232;85;20980;-64
2021/06/26 16:47:17;;;;;;;5.97;5.15;;;;;;;26.60;65.26;100346.02;2820111;84;21052;-65
2021/06/26 16:51:19;;;;;;;7.58;5.45;;;;;;;26.50;66.43;100347.09;2800040;84;21011;-63
2021/06/26 16:55:22;;;;;;;7.10;6.40;;;;;;;26.44;66.96;100357.05;2800302;85;21058;-64
2021/06/26 16:59:27;;;;;;;6.10;5.47;;;;;;;26.46;67.03;100340.44;2800449;84;20978;-65
2021/06/26 17:03:30;;;;;;;7.08;5.75;;;;;;;26.38;65.31;100338.34;2798200;84;21090;-65
2021/06/26 17:07:32;;;;;;;7.40;5.87;;;;;;;26.29;65.50;100335.62;2800049;84;21002;-64
2021/06/26 17:11:35;;;;;;;6.28;5.67;;;;;;;26.19;65.99;100344.88;2785426;84;21019;-64
2021/06/26 17:15:38;;;;;;;8.10;7.10;;;;;;;26.12;66.78;100339.99;2781917;85;21007;-64
2021/06/26 17:19:42;;;;;;;7.40;5.40;;;;;;;26.07;67.66;100353.78;2781945;85;20995;-64
2021/06/26 17:23:45;;;;;;;6.87;6.17;;;;;;;26.01;68.82;100352.48;2781919;85;21034;-64
2021/06/26 17:27:47;;;;;;;6.05;5.45;;;;;;;25.86;69.64;100348.78;2782132;85;21030;-64
2021/06/26 17:31:50;;;;;;;6.33;5.60;;;;;;;25.72;69.69;100348.09;2782081;85;21002;-64
2021/06/26 17:35:55;;;;;;;5.65;5.03;;;;;;;25.50;69.84;100348.52;2782511;85;21026;-65
2021/06/26 17:39:58;;;;;;;17.98;6.00;;;;;;;25.33;71.16;100359.09;2782595;85;21602;-65
2021/06/26 17:44:00;;;;;;;11.05;6.40;;;;;;;25.29;71.96;100360.08;2782155;85;21006;-65
2021/06/26 17:48:04;;;;;;;11.12;7.92;;;;;;;25.23;73.19;100360.95;2781793;85;21034;-65
2021/06/26 17:52:08;;;;;;;9.33;7.40;;;;;;;25.00;74.33;100358.83;2782079;85;21002;-66
2021/06/26 17:56:13;;;;;;;8.73;6.83;;;;;;;24.80;74.91;100363.88;2782019;85;21038;-65
2021/06/26 18:00:17;;;;;;;;;;;;;;;24.55;75.51;100361.87;2784760;85;21042;-65
2021/06/26 18:04:20;;;;;;;8.18;7.42;;;;;;;24.28;76.52;100366.61;2782074;85;20164;-65
2021/06/26 18:08:22;;;;;;;10.85;7.78;;;;;;;24.19;76.99;100360.04;2781838;85;21026;-65
2021/06/26 18:12:26;;;;;;;9.30;8.13;;;;;;;24.10;77.27;100355.36;2781798;84;21077;-65
2021/06/26 18:16:30;;;;;;;9.18;8.30;;;;;;;23.98;77.89;100363.86;2781694;85;21046;-65
2021/06/26 18:20:33;;;;;;;10.93;7.62;;;;;;;23.89;78.38;100361.04;2781658;85;21046;-65
2021/06/26 18:24:36;;;;;;;8.80;7.87;;;;;;;23.91;78.71;100369.30;2781491;85;21094;-65
2021/06/26 18:28:39;;;;;;;11.60;8.93;;;;;;;23.83;78.71;100368.15;2758488;86;21035;-65
2021/06/26 18:32:43;;;;;;;10.30;9.25;;;;;;;23.67;79.07;100367.54;2781089;85;21047;-66
2021/06/26 18:36:46;;;;;;;10.88;8.28;;;;;;;23.56;79.68;100370.06;2759230;86;20988;-65
2021/06/26 18:40:49;;;;;;;10.93;9.33;;;;;;;23.44;80.03;100372.06;2781763;85;20998;-65
2021/06/26 18:44:52;;;;;;;10.32;9.25;;;;;;;23.40;80.04;100373.53;2781401;85;22219;-65